sensor_id;sensor_type;location;lat;lon;timestamp;P1;durP1;ratioP1;P2;durP2;ratioP2
12842;SDS011;35724;49.324;-123.118;2023-03-14T00:01:07;1.63;;;0.80;;
12842;SDS011;35724;49.324;-123.118;2023-03-14T00:11:19;1.60;;;1.50;;
12842;SDS011;35724;49.324;-123.118;2023-03-14T00:21:26;1.70;;;1.60;;
12842;SDS011;35724;49.324;-123.118;2023-03-14T00:31:37;1.20;;;0.98;;
12842;SDS011;35724;49.324;-123.118;2023-03-14T00:41:44;1.05;;;1.00;;
12842;SDS011;35724;49.324;-123.118;2023-03-14T00:51:53;1.30;;;0.90;;
12842;SDS011;35724;49.324;-123.118;2023-03-14T01:02:00;1.40;;;1.00;;
12842;SDS011;35724;49.324;-123.118;2023-03-14T01:12:33;1.63;;;0.73;;
12842;SDS011;35724;49.324;-123.118;2023-03-14T01:23:24;1.00;;;0.85;;
12842;SDS011;35724;49.324;-123.118;2023-03-14T01:33:33;2.30;;;0.80;;
12842;SDS011;35724;49.324;-123.118;2023-03-14T01:43:40;0.90;;;0.77;;
12842;SDS011;35724;49.324;-123.118;2023-03-14T01:53:50;1.10;;;0.90;;
12842;SDS011;35724;49.324;-123.118;2023-03-14T02:04:01;3.08;;;1.08;;
12842;SDS011;35724;49.324;-123.118;2023-03-14T02:14:16;2.45;;;0.98;;
12842;SDS011;35724;49.324;-123.118;2023-03-14T02:24:57;1.98;;;1.27;;
12842;SDS011;35724;49.324;-123.118;2023-03-14T02:35:14;3.95;;;1.80;;
12842;SDS011;35724;49.324;-123.118;2023-03-14T02:45:43;1.65;;;1.50;;
12842;SDS011;35724;49.324;-123.118;2023-03-14T02:55:56;1.10;;;1.00;;
12842;SDS011;35724;49.324;-123.118;2023-03-14T03:06:08;1.60;;;1.00;;
12842;SDS011;35724;49.324;-123.118;2023-03-14T03:16:17;1.70;;;0.88;;
12842;SDS011;35724;49.324;-123.118;2023-03-14T03:26:24;1.77;;;0.80;;
12842;SDS011;35724;49.324;-123.118;2023-03-14T03:36:33;0.70;;;0.70;;
12842;SDS011;35724;49.324;-123.118;2023-03-14T03:46:40;1.00;;;0.70;;
12842;SDS011;35724;49.324;-123.118;2023-03-14T03:56:49;1.02;;;0.80;;
12842;SDS011;35724;49.324;-123.118;2023-03-14T04:07:12;1.00;;;0.70;;
12842;SDS011;35724;49.324;-123.118;2023-03-14T04:17:24;1.08;;;0.80;;
12842;SDS011;35724;49.324;-123.118;2023-03-14T04:27:31;1.30;;;0.90;;
12842;SDS011;35724;49.324;-123.118;2023-03-14T04:37:47;2.38;;;0.90;;
12842;SDS011;35724;49.324;-123.118;2023-03-14T04:47:56;0.73;;;0.73;;
12842;SDS011;35724;49.324;-123.118;2023-03-14T04:58:06;0.85;;;0.75;;
12842;SDS011;35724;49.324;-123.118;2023-03-14T05:08:15;0.70;;;0.70;;
12842;SDS011;35724;49.324;-123.118;2023-03-14T05:18:39;0.73;;;0.73;;
12842;SDS011;35724;49.324;-123.118;2023-03-14T05:28:53;0.63;;;0.60;;
12842;SDS011;35724;49.324;-123.118;2023-03-14T05:39:11;0.70;;;0.70;;
12842;SDS011;35724;49.324;-123.118;2023-03-14T05:49:39;1.55;;;1.20;;
12842;SDS011;35724;49.324;-123.118;2023-03-14T06:00:14;2.72;;;2.53;;
12842;SDS011;35724;49.324;-123.118;2023-03-14T06:10:39;2.30;;;2.10;;
12842;SDS011;35724;49.324;-123.118;2023-03-14T06:20:49;1.98;;;1.88;;
12842;SDS011;35724;49.324;-123.118;2023-03-14T06:31:01;1.75;;;1.65;;
12842;SDS011;35724;49.324;-123.118;2023-03-14T06:41:18;1.52;;;1.42;;
12842;SDS011;35724;49.324;-123.118;2023-03-14T06:51:27;1.30;;;1.20;;
12842;SDS011;35724;49.324;-123.118;2023-03-14T07:01:38;1.27;;;1.10;;
12842;SDS011;35724;49.324;-123.118;2023-03-14T07:11:46;1.10;;;1.00;;
12842;SDS011;35724;49.324;-123.118;2023-03-14T07:21:56;1.08;;;0.98;;
12842;SDS011;35724;49.324;-123.118;2023-03-14T07:32:04;0.88;;;0.88;;
12842;SDS011;35724;49.324;-123.118;2023-03-14T07:42:13;1.00;;;1.00;;
12842;SDS011;35724;49.324;-123.118;2023-03-14T07:52:23;0.90;;;0.90;;
12842;SDS011;35724;49.324;-123.118;2023-03-14T08:02:31;0.75;;;0.75;;
12842;SDS011;35724;49.324;-123.118;2023-03-14T08:12:39;0.70;;;0.70;;
12842;SDS011;35724;49.324;-123.118;2023-03-14T08:22:48;0.50;;;0.50;;
12842;SDS011;35724;49.324;-123.118;2023-03-14T08:32:56;0.60;;;0.60;;
12842;SDS011;35724;49.324;-123.118;2023-03-14T08:43:07;0.60;;;0.60;;
12842;SDS011;35724;49.324;-123.118;2023-03-14T08:53:14;0.50;;;0.40;;
12842;SDS011;35724;49.324;-123.118;2023-03-14T09:03:23;0.60;;;0.60;;
12842;SDS011;35724;49.324;-123.118;2023-03-14T09:13:32;0.50;;;0.50;;
12842;SDS011;35724;49.324;-123.118;2023-03-14T09:23:41;0.60;;;0.60;;
12842;SDS011;35724;49.324;-123.118;2023-03-14T09:33:49;0.50;;;0.50;;
12842;SDS011;35724;49.324;-123.118;2023-03-14T09:43:59;0.50;;;0.50;;
12842;SDS011;35724;49.324;-123.118;2023-03-14T09:54:10;0.40;;;0.40;;
12842;SDS011;35724;49.324;-123.118;2023-03-14T10:04:34;0.60;;;0.60;;
12842;SDS011;35724;49.324;-123.118;2023-03-14T10:14:45;0.50;;;0.50;;
12842;SDS011;35724;49.324;-123.118;2023-03-14T10:24:56;0.50;;;0.50;;
12842;SDS011;35724;49.324;-123.118;2023-03-14T10:35:08;0.45;;;0.45;;
12842;SDS011;35724;49.324;-123.118;2023-03-14T10:45:30;0.50;;;0.50;;
12842;SDS011;35724;49.324;-123.118;2023-03-14T10:55:40;0.40;;;0.40;;
12842;SDS011;35724;49.324;-123.118;2023-03-14T11:05:51;0.50;;;0.50;;
12842;SDS011;35724;49.324;-123.118;2023-03-14T11:16:04;0.30;;;0.30;;
12842;SDS011;35724;49.324;-123.118;2023-03-14T11:26:24;0.50;;;0.50;;
12842;SDS011;35724;49.324;-123.118;2023-03-14T11:36:37;0.50;;;0.50;;
12842;SDS011;35724;49.324;-123.118;2023-03-14T11:46:48;0.52;;;0.52;;
12842;SDS011;35724;49.324;-123.118;2023-03-14T11:57:03;0.52;;;0.52;;
12842;SDS011;35724;49.324;-123.118;2023-03-14T12:07:17;0.60;;;0.60;;
12842;SDS011;35724;49.324;-123.118;2023-03-14T12:17:28;0.60;;;0.60;;
12842;SDS011;35724;49.324;-123.118;2023-03-14T12:28:02;0.50;;;0.50;;
12842;SDS011;35724;49.324;-123.118;2023-03-14T12:38:24;0.40;;;0.40;;
12842;SDS011;35724;49.324;-123.118;2023-03-14T12:48:39;0.40;;;0.40;;
12842;SDS011;35724;49.324;-123.118;2023-03-14T12:58:47;0.50;;;0.50;;
12842;SDS011;35724;49.324;-123.118;2023-03-14T13:09:51;0.40;;;0.40;;
12842;SDS011;35724;49.324;-123.118;2023-03-14T13:20:02;0.45;;;0.45;;
12842;SDS011;35724;49.324;-123.118;2023-03-14T13:30:20;0.60;;;0.50;;
12842;SDS011;35724;49.324;-123.118;2023-03-14T13:40:29;0.40;;;0.40;;
12842;SDS011;35724;49.324;-123.118;2023-03-14T13:50:39;0.40;;;0.40;;
12842;SDS011;35724;49.324;-123.118;2023-03-14T14:00:54;0.45;;;0.45;;
12842;SDS011;35724;49.324;-123.118;2023-03-14T14:11:07;0.50;;;0.50;;
12842;SDS011;35724;49.324;-123.118;2023-03-14T14:21:22;0.50;;;0.50;;
12842;SDS011;35724;49.324;-123.118;2023-03-14T14:31:31;0.63;;;0.60;;
12842;SDS011;35724;49.324;-123.118;2023-03-14T14:41:40;0.60;;;0.60;;
12842;SDS011;35724;49.324;-123.118;2023-03-14T14:51:49;0.50;;;0.50;;
12842;SDS011;35724;49.324;-123.118;2023-03-14T15:01:56;0.60;;;0.60;;
12842;SDS011;35724;49.324;-123.118;2023-03-14T15:12:07;2.00;;;1.20;;
12842;SDS011;35724;49.324;-123.118;2023-03-14T15:22:15;2.45;;;1.50;;
12842;SDS011;35724;49.324;-123.118;2023-03-14T15:32:23;1.42;;;1.10;;
12842;SDS011;35724;49.324;-123.118;2023-03-14T15:42:31;1.58;;;1.30;;
12842;SDS011;35724;49.324;-123.118;2023-03-14T15:52:40;2.80;;;1.50;;
12842;SDS011;35724;49.324;-123.118;2023-03-14T16:02:46;1.98;;;1.33;;
12842;SDS011;35724;49.324;-123.118;2023-03-14T16:12:55;2.22;;;1.50;;
12842;SDS011;35724;49.324;-123.118;2023-03-14T16:23:02;2.17;;;1.50;;
12842;SDS011;35724;49.324;-123.118;2023-03-14T16:33:11;2.45;;;1.33;;
12842;SDS011;35724;49.324;-123.118;2023-03-14T16:43:18;3.30;;;1.50;;
12842;SDS011;35724;49.324;-123.118;2023-03-14T16:53:27;2.22;;;1.35;;
12842;SDS011;35724;49.324;-123.118;2023-03-14T17:03:34;2.13;;;1.35;;
12842;SDS011;35724;49.324;-123.118;2023-03-14T17:13:43;2.30;;;1.15;;
12842;SDS011;35724;49.324;-123.118;2023-03-14T17:23:50;2.17;;;1.30;;
12842;SDS011;35724;49.324;-123.118;2023-03-14T17:33:59;2.20;;;1.20;;
12842;SDS011;35724;49.324;-123.118;2023-03-14T17:44:06;2.03;;;1.30;;
12842;SDS011;35724;49.324;-123.118;2023-03-14T17:54:17;2.45;;;1.20;;
12842;SDS011;35724;49.324;-123.118;2023-03-14T18:04:24;2.03;;;1.10;;
12842;SDS011;35724;49.324;-123.118;2023-03-14T18:14:32;1.45;;;1.13;;
12842;SDS011;35724;49.324;-123.118;2023-03-14T18:24:40;1.42;;;1.13;;
12842;SDS011;35724;49.324;-123.118;2023-03-14T18:34:49;4.10;;;1.20;;
12842;SDS011;35724;49.324;-123.118;2023-03-14T18:44:56;2.40;;;1.42;;
12842;SDS011;35724;49.324;-123.118;2023-03-14T18:55:05;2.60;;;1.30;;
12842;SDS011;35724;49.324;-123.118;2023-03-14T19:05:12;1.92;;;1.25;;
12842;SDS011;35724;49.324;-123.118;2023-03-14T19:15:21;2.00;;;1.20;;
12842;SDS011;35724;49.324;-123.118;2023-03-14T19:25:31;2.25;;;1.30;;
12842;SDS011;35724;49.324;-123.118;2023-03-14T19:35:40;1.80;;;1.20;;
12842;SDS011;35724;49.324;-123.118;2023-03-14T19:45:47;4.75;;;1.40;;
12842;SDS011;35724;49.324;-123.118;2023-03-14T19:55:56;3.00;;;1.20;;
12842;SDS011;35724;49.324;-123.118;2023-03-14T20:06:03;2.60;;;1.30;;
12842;SDS011;35724;49.324;-123.118;2023-03-14T20:16:15;2.42;;;1.50;;
12842;SDS011;35724;49.324;-123.118;2023-03-14T20:26:22;1.75;;;1.20;;
12842;SDS011;35724;49.324;-123.118;2023-03-14T20:36:31;1.35;;;1.10;;
12842;SDS011;35724;49.324;-123.118;2023-03-14T20:46:39;1.33;;;1.10;;
12842;SDS011;35724;49.324;-123.118;2023-03-14T20:56:48;1.75;;;1.30;;
12842;SDS011;35724;49.324;-123.118;2023-03-14T21:06:57;2.13;;;1.10;;
12842;SDS011;35724;49.324;-123.118;2023-03-14T21:17:06;1.80;;;1.20;;
12842;SDS011;35724;49.324;-123.118;2023-03-14T21:27:12;2.50;;;1.15;;
12842;SDS011;35724;49.324;-123.118;2023-03-14T21:37:21;1.20;;;1.00;;
12842;SDS011;35724;49.324;-123.118;2023-03-14T21:47:30;2.22;;;1.30;;
12842;SDS011;35724;49.324;-123.118;2023-03-14T21:57:39;2.03;;;1.08;;
12842;SDS011;35724;49.324;-123.118;2023-03-14T22:07:47;2.35;;;1.20;;
12842;SDS011;35724;49.324;-123.118;2023-03-14T22:17:59;2.42;;;1.25;;
12842;SDS011;35724;49.324;-123.118;2023-03-14T22:28:06;2.08;;;1.20;;
12842;SDS011;35724;49.324;-123.118;2023-03-14T22:38:15;1.23;;;0.90;;
12842;SDS011;35724;49.324;-123.118;2023-03-14T22:48:24;2.55;;;1.02;;
12842;SDS011;35724;49.324;-123.118;2023-03-14T22:58:33;1.33;;;0.98;;
12842;SDS011;35724;49.324;-123.118;2023-03-14T23:08:41;1.85;;;1.00;;
12842;SDS011;35724;49.324;-123.118;2023-03-14T23:18:50;1.98;;;0.90;;
12842;SDS011;35724;49.324;-123.118;2023-03-14T23:29:00;1.60;;;0.90;;
12842;SDS011;35724;49.324;-123.118;2023-03-14T23:39:11;1.17;;;1.00;;
12842;SDS011;35724;49.324;-123.118;2023-03-14T23:49:19;2.28;;;1.10;;
12842;SDS011;35724;49.324;-123.118;2023-03-14T23:59:28;1.55;;;1.00;;
